Fernandina Beach, Florida
Current Conditions -  °F | °C
As of 6:35 PM on Sunday 21 Dec 2014 (Local Time) from KFHB Reporting Station
Overcast Overcast  
Wind Chill: 63°   Ceiling: 400
Heat Index: 63°   Visibility: 3mi
Dew Point: 59°   Wind: 8mph
Humidity: 88%   Direction: 360°N
Pressure: 30.06"   Gusts: NA
Location:  30.67°N, 81.46°W
Report Text: KFHB 212335Z AUTO 36007KT 3SM OVC004 17/15 A3006 RMK AO1
Loading
Personal Weather Stations






























Interactive Weather Map New forecast layout! Learn more

10-Day Weather Forecast

Advertisements
Track Severe Weather on mobile